Am Tubarao — A8ZA9 — position and weather

sailwx.info

Track history (hours):
 
Tides and Currents Weather Stations Pressure Air Temp Water Temp Dewpoint Dewpoint Depression Visibility Wind Speed Wind Dir Waves Ship Positions

Am Tubarao

Last reported at 2017-Mar-20 03:25 UTC. Time now 2017-Mar-27 04:50 UTC.
Position N 51°23' W 010°35'.

Length 230 m; draft 9.2 m.

Type: Cargo ship. MMSI: 636015171.

Date/timePositionNaut miles runAvg speedWind from/ knotsBaromVisibWave heightAir tempDewpointWater temp
2017-Mar-20 03:25N 51°23' W 010°35'8 9.7
2017-Mar-20 02:33N 51°21' W 010°23'10 9.6
2017-Mar-20 01:34N 51°18' W 010°08'1010.2
2017-Mar-20 00:34N 51°16' W 009°52'1010.5
2017-Mar-19 23:34N 51°12' W 009°36'1110.6
2017-Mar-19 22:34N 51°06' W 009°23'1010.2
2017-Mar-19 21:33N 50°59' W 009°10'12210.0
2017-Mar-19 09:17N 49°44' W 006°40'8 9.9
2017-Mar-19 08:30N 49°43' W 006°28'4310.6
2017-Mar-19 04:30N 49°43' W 005°22'1110.9
2017-Mar-19 03:29N 49°42' W 005°05'1211.5
2017-Mar-19 02:25N 49°44' W 004°46'1012.2
2017-Mar-19 01:34N 49°47' W 004°31'1312.0
2017-Mar-19 00:26N 49°49' W 004°10'1411.3
2017-Mar-18 23:10N 49°53' W 003°49'810.9
2017-Mar-18 22:27N 49°55' W 003°37'910.6
2017-Mar-18 21:33N 49°57' W 003°23'1110.5
2017-Mar-18 20:33N 49°59' W 003°07'1111.0
2017-Mar-18 19:31N 50°02' W 002°49'37 9.3
2017-Mar-18 15:30N 50°36' W 002°25'0 0.1
2017-Mar-18 14:26N 50°36' W 002°24'0 0.0
2017-Mar-18 13:32N 50°36' W 002°24'0 0.0
2017-Mar-18 12:29N 50°36' W 002°24'0 0.0
2017-Mar-18 11:20N 50°36' W 002°24'0 0.0
2017-Mar-18 10:26N 50°36' W 002°24'0 0.0
2017-Mar-18 09:32N 50°36' W 002°24'0 0.0
2017-Mar-18 08:32N 50°36' W 002°24'0 0.0
2017-Mar-18 07:32N 50°36' W 002°24'0 0.3
2017-Mar-18 06:33N 50°36' W 002°24'62 6.0
2017-Mar-17 20:15N 50°29' W 000°48'911.5
2017-Mar-17 19:30N 50°29' W 000°34'1212.2
2017-Mar-17 18:33N 50°30' W 000°16'1312.5
2017-Mar-17 17:33N 50°32' E 000°04'1412.5
2017-Mar-17 16:25N 50°35' E 000°25'1112.3
2017-Mar-17 15:33N 50°39' E 000°41'1211.6
2017-Mar-17 14:33N 50°45' E 000°57'1111.0
2017-Mar-17 13:33N 50°51' E 001°11'1111.5
2017-Mar-17 12:33N 50°59' E 001°24'1212.2
2017-Mar-17 11:33N 51°06' E 001°40'1312.8
2017-Mar-17 10:33N 51°03' E 001°59'1413.8
2017-Mar-17 09:33N 51°04' E 002°21'1 0.9
2017-Mar-17 08:33N 51°03' E 002°20'0 0.3
2017-Mar-17 07:31N 51°03' E 002°19'0 0.0
2017-Mar-17 06:28N 51°03' E 002°19'0 0.0
2017-Mar-17 05:31N 51°03' E 002°19'0 0.0
2017-Mar-17 04:31N 51°03' E 002°19'0 0.0
2017-Mar-17 03:31N 51°03' E 002°19'0 0.0
2017-Mar-17 02:22N 51°03' E 002°19'0 0.0
2017-Mar-17 01:25N 51°03' E 002°19'0 0.0
2017-Mar-17 00:28N 51°03' E 002°19'0 0.0
2017-Mar-16 23:31N 51°03' E 002°19'0 0.0
2017-Mar-16 22:28N 51°03' E 002°19'0 0.0
2017-Mar-16 21:28N 51°03' E 002°19'0 0.0
2017-Mar-16 20:28N 51°03' E 002°19'0 0.0
2017-Mar-16 19:25N 51°03' E 002°19'0 0.0
2017-Mar-16 18:31N 51°03' E 002°19'0 0.0
2017-Mar-16 17:28N 51°03' E 002°19'0 0.0
2017-Mar-16 16:31N 51°03' E 002°19'0 0.0
2017-Mar-16 14:25N 51°03' E 002°19'0 0.0
2017-Mar-16 13:31N 51°03' E 002°19'0 0.0
2017-Mar-16 12:28N 51°03' E 002°19'0 0.0
2017-Mar-16 11:31N 51°03' E 002°19'0 0.0
2017-Mar-16 10:31N 51°03' E 002°19'0 0.0
2017-Mar-16 09:28N 51°03' E 002°19'0 0.0
2017-Mar-16 08:28N 51°03' E 002°19'0 0.0
2017-Mar-16 07:31N 51°03' E 002°19'0 0.0
2017-Mar-16 06:31N 51°03' E 002°19'0 0.0
2017-Mar-16 05:31N 51°03' E 002°19'0 0.0
2017-Mar-16 04:31N 51°03' E 002°19'0 0.0
2017-Mar-16 03:28N 51°03' E 002°19'0 0.0
2017-Mar-16 02:31N 51°03' E 002°19'0 0.0
2017-Mar-16 01:31N 51°03' E 002°19'0 0.0
2017-Mar-16 00:31N 51°03' E 002°19'0 0.0
2017-Mar-15 23:31N 51°03' E 002°19'0 0.0
2017-Mar-15 22:31N 51°03' E 002°19'0 0.0
2017-Mar-15 21:28N 51°03' E 002°19'0 0.0
2017-Mar-15 20:22N 51°03' E 002°19'0 0.0
2017-Mar-15 19:31N 51°03' E 002°19'0 0.0
2017-Mar-15 18:25N 51°03' E 002°19'0 0.0
2017-Mar-15 17:28N 51°03' E 002°19'0 0.0
2017-Mar-15 16:31N 51°03' E 002°19'0 0.0
2017-Mar-15 15:31N 51°03' E 002°19'0 0.0
2017-Mar-15 14:28N 51°03' E 002°19'0 0.0
2017-Mar-15 13:31N 51°03' E 002°19'0 0.0
2017-Mar-15 12:28N 51°03' E 002°19'0 0.0
2017-Mar-15 11:19N 51°03' E 002°19'0 0.0
2017-Mar-15 10:31N 51°03' E 002°19'0 0.0
2017-Mar-15 09:31N 51°03' E 002°19'0 0.0
2017-Mar-15 08:31N 51°03' E 002°19'0 0.0
2017-Mar-15 07:31N 51°03' E 002°19'0 0.0
2017-Mar-15 06:31N 51°03' E 002°19'0 0.0
2017-Mar-15 05:28N 51°03' E 002°19'0 0.0
2017-Mar-15 04:31N 51°03' E 002°19'0 0.0
2017-Mar-15 03:25N 51°03' E 002°19'0 0.0
2017-Mar-15 02:31N 51°03' E 002°19'0 0.0
2017-Mar-15 01:28N 51°03' E 002°19'0 0.0
2017-Mar-15 00:31N 51°03' E 002°19'0 0.0
2017-Mar-14 23:16N 51°03' E 002°19'0 0.0
2017-Mar-14 22:28N 51°03' E 002°19'0 0.0
2017-Mar-14 21:31N 51°03' E 002°19'0 0.0
2017-Mar-14 20:25N 51°03' E 002°19'0 0.0
2017-Mar-14 19:31N 51°03' E 002°19'0 0.0
2017-Mar-14 18:31N 51°03' E 002°19'0 0.0
2017-Mar-14 17:25N 51°03' E 002°19'0 0.0
2017-Mar-14 16:31N 51°03' E 002°19'0 0.0
2017-Mar-14 15:13N 51°03' E 002°19'0 0.0
2017-Mar-14 14:31N 51°03' E 002°19'0 0.0
2017-Mar-14 13:31N 51°03' E 002°19'0 0.0
2017-Mar-14 12:22N 51°03' E 002°19'0 0.0
2017-Mar-14 11:22N 51°03' E 002°19'0 0.0
2017-Mar-14 10:22N 51°03' E 002°19'0 0.0
2017-Mar-14 09:31N 51°03' E 002°19'0 0.0
2017-Mar-14 08:28N 51°03' E 002°19'0 0.0
2017-Mar-14 07:31N 51°03' E 002°19'0 0.0
2017-Mar-14 06:28N 51°03' E 002°19'0 0.0
2017-Mar-14 05:25N 51°03' E 002°19'0 0.0
2017-Mar-14 04:31N 51°03' E 002°19'0 0.0
2017-Mar-14 03:31N 51°03' E 002°19'0 0.0
2017-Mar-14 02:28N 51°03' E 002°19'0 0.0
2017-Mar-14 01:31N 51°03' E 002°19'0 0.0
2017-Mar-14 00:31N 51°03' E 002°19'0 0.0
2017-Mar-13 23:31N 51°03' E 002°19'0 0.0
2017-Mar-13 22:31N 51°03' E 002°19'0 0.0
2017-Mar-13 21:31N 51°03' E 002°19'0 0.0
2017-Mar-13 20:31N 51°03' E 002°19'0 0.0
2017-Mar-13 19:31N 51°03' E 002°19'0 0.0
2017-Mar-13 18:31N 51°03' E 002°19'0 0.0
2017-Mar-13 17:28N 51°03' E 002°19'0 0.0
2017-Mar-13 16:33N 51°03' E 002°20'1 0.7
2017-Mar-13 15:33N 51°03' E 002°21'1 1.4
2017-Mar-13 14:33N 51°04' E 002°18'8 8.4
2017-Mar-13 13:33N 51°03' E 002°05'1211.7
2017-Mar-13 12:34N 51°02' E 001°47'1 0.6
2017-Mar-13 11:34N 51°03' E 001°46'4 4.3
2017-Mar-13 10:34N 51°01' E 001°40'4 4.3
2017-Mar-13 09:34N 50°58' E 001°35'4 4.0
2017-Mar-13 08:34N 50°56' E 001°30'4 3.8
2017-Mar-13 07:33N 50°52' E 001°28'8 6.5
2017-Mar-13 06:15N 50°44' E 001°23'56 8.3
2017-Mar-12 23:34N 50°19' E 000°04'1210.8
2017-Mar-12 22:25N 50°16' W 000°14'2412.5
2017-Mar-12 20:32N 50°10' W 000°50'1313.2
2017-Mar-12 19:33N 50°07' W 001°09'1312.7
2017-Mar-12 18:33N 50°03' W 001°28'1211.6
2017-Mar-12 17:34N 50°00' W 001°46'1010.2
2017-Mar-12 16:34N 49°58' W 002°01'33 7.3
2017-Mar-12 12:08N 49°49' W 002°50'13 8.5
2017-Mar-12 10:34N 49°47' W 003°10'8 8.0
2017-Mar-12 09:34N 49°46' W 003°22'9 9.3
2017-Mar-12 08:33N 49°45' W 003°37'1010.3
2017-Mar-12 07:34N 49°44' W 003°52'3911.3
2017-Mar-12 04:05N 49°39' W 004°53'611.5
2017-Mar-12 03:33N 49°38' W 005°02'1210.6
2017-Mar-12 02:26N 49°36' W 005°20'1010.4
2017-Mar-12 01:30N 49°38' W 005°35'  
Track history (hours):
 
Tides and Currents Weather Stations Pressure Air Temp Water Temp Dewpoint Dewpoint Depression Visibility Wind Speed Wind Dir Waves Ship Positions

Am Tubarao

Last reported at 2017-Mar-20 03:25 UTC. Time now 2017-Mar-27 04:50 UTC.
Position N 51°23' W 010°35'.

Length 230 m; draft 9.2 m.

Type: Cargo ship. MMSI: 636015171.

Date/timePositionNaut miles runAvg speedWind from/ knotsBaromVisibWave heightAir tempDewpointWater temp
2017-Mar-20 03:25N 51°23' W 010°35'8 9.7
2017-Mar-20 02:33N 51°21' W 010°23'10 9.6
2017-Mar-20 01:34N 51°18' W 010°08'1010.2
2017-Mar-20 00:34N 51°16' W 009°52'1010.5
2017-Mar-19 23:34N 51°12' W 009°36'1110.6
2017-Mar-19 22:34N 51°06' W 009°23'1010.2
2017-Mar-19 21:33N 50°59' W 009°10'12210.0
2017-Mar-19 09:17N 49°44' W 006°40'8 9.9
2017-Mar-19 08:30N 49°43' W 006°28'4310.6
2017-Mar-19 04:30N 49°43' W 005°22'1110.9
2017-Mar-19 03:29N 49°42' W 005°05'1211.5
2017-Mar-19 02:25N 49°44' W 004°46'1012.2
2017-Mar-19 01:34N 49°47' W 004°31'1312.0
2017-Mar-19 00:26N 49°49' W 004°10'1411.3
2017-Mar-18 23:10N 49°53' W 003°49'810.9
2017-Mar-18 22:27N 49°55' W 003°37'910.6
2017-Mar-18 21:33N 49°57' W 003°23'1110.5
2017-Mar-18 20:33N 49°59' W 003°07'1111.0
2017-Mar-18 19:31N 50°02' W 002°49'37 9.3
2017-Mar-18 15:30N 50°36' W 002°25'0 0.1
2017-Mar-18 14:26N 50°36' W 002°24'0 0.0
2017-Mar-18 13:32N 50°36' W 002°24'0 0.0
2017-Mar-18 12:29N 50°36' W 002°24'0 0.0
2017-Mar-18 11:20N 50°36' W 002°24'0 0.0
2017-Mar-18 10:26N 50°36' W 002°24'0 0.0
2017-Mar-18 09:32N 50°36' W 002°24'0 0.0
2017-Mar-18 08:32N 50°36' W 002°24'0 0.0
2017-Mar-18 07:32N 50°36' W 002°24'0 0.3
2017-Mar-18 06:33N 50°36' W 002°24'62 6.0
2017-Mar-17 20:15N 50°29' W 000°48'911.5
2017-Mar-17 19:30N 50°29' W 000°34'1212.2
2017-Mar-17 18:33N 50°30' W 000°16'1312.5
2017-Mar-17 17:33N 50°32' E 000°04'1412.5
2017-Mar-17 16:25N 50°35' E 000°25'1112.3
2017-Mar-17 15:33N 50°39' E 000°41'1211.6
2017-Mar-17 14:33N 50°45' E 000°57'1111.0
2017-Mar-17 13:33N 50°51' E 001°11'1111.5
2017-Mar-17 12:33N 50°59' E 001°24'1212.2
2017-Mar-17 11:33N 51°06' E 001°40'1312.8
2017-Mar-17 10:33N 51°03' E 001°59'1413.8
2017-Mar-17 09:33N 51°04' E 002°21'1 0.9
2017-Mar-17 08:33N 51°03' E 002°20'0 0.3
2017-Mar-17 07:31N 51°03' E 002°19'0 0.0
2017-Mar-17 06:28N 51°03' E 002°19'0 0.0
2017-Mar-17 05:31N 51°03' E 002°19'0 0.0
2017-Mar-17 04:31N 51°03' E 002°19'0 0.0
2017-Mar-17 03:31N 51°03' E 002°19'0 0.0
2017-Mar-17 02:22N 51°03' E 002°19'0 0.0
2017-Mar-17 01:25N 51°03' E 002°19'0 0.0
2017-Mar-17 00:28N 51°03' E 002°19'0 0.0
2017-Mar-16 23:31N 51°03' E 002°19'0 0.0
2017-Mar-16 22:28N 51°03' E 002°19'0 0.0
2017-Mar-16 21:28N 51°03' E 002°19'0 0.0
2017-Mar-16 20:28N 51°03' E 002°19'0 0.0
2017-Mar-16 19:25N 51°03' E 002°19'0 0.0
2017-Mar-16 18:31N 51°03' E 002°19'0 0.0
2017-Mar-16 17:28N 51°03' E 002°19'0 0.0
2017-Mar-16 16:31N 51°03' E 002°19'0 0.0
2017-Mar-16 14:25N 51°03' E 002°19'0 0.0
2017-Mar-16 13:31N 51°03' E 002°19'0 0.0
2017-Mar-16 12:28N 51°03' E 002°19'0 0.0
2017-Mar-16 11:31N 51°03' E 002°19'0 0.0
2017-Mar-16 10:31N 51°03' E 002°19'0 0.0
2017-Mar-16 09:28N 51°03' E 002°19'0 0.0
2017-Mar-16 08:28N 51°03' E 002°19'0 0.0
2017-Mar-16 07:31N 51°03' E 002°19'0 0.0
2017-Mar-16 06:31N 51°03' E 002°19'0 0.0
2017-Mar-16 05:31N 51°03' E 002°19'0 0.0
2017-Mar-16 04:31N 51°03' E 002°19'0 0.0
2017-Mar-16 03:28N 51°03' E 002°19'0 0.0
2017-Mar-16 02:31N 51°03' E 002°19'0 0.0
2017-Mar-16 01:31N 51°03' E 002°19'0 0.0
2017-Mar-16 00:31N 51°03' E 002°19'0 0.0
2017-Mar-15 23:31N 51°03' E 002°19'0 0.0
2017-Mar-15 22:31N 51°03' E 002°19'0 0.0
2017-Mar-15 21:28N 51°03' E 002°19'0 0.0
2017-Mar-15 20:22N 51°03' E 002°19'0 0.0
2017-Mar-15 19:31N 51°03' E 002°19'0 0.0
2017-Mar-15 18:25N 51°03' E 002°19'0 0.0
2017-Mar-15 17:28N 51°03' E 002°19'0 0.0
2017-Mar-15 16:31N 51°03' E 002°19'0 0.0
2017-Mar-15 15:31N 51°03' E 002°19'0 0.0
2017-Mar-15 14:28N 51°03' E 002°19'0 0.0
2017-Mar-15 13:31N 51°03' E 002°19'0 0.0
2017-Mar-15 12:28N 51°03' E 002°19'0 0.0
2017-Mar-15 11:19N 51°03' E 002°19'0 0.0
2017-Mar-15 10:31N 51°03' E 002°19'0 0.0
2017-Mar-15 09:31N 51°03' E 002°19'0 0.0
2017-Mar-15 08:31N 51°03' E 002°19'0 0.0
2017-Mar-15 07:31N 51°03' E 002°19'0 0.0
2017-Mar-15 06:31N 51°03' E 002°19'0 0.0
2017-Mar-15 05:28N 51°03' E 002°19'0 0.0
2017-Mar-15 04:31N 51°03' E 002°19'0 0.0
2017-Mar-15 03:25N 51°03' E 002°19'0 0.0
2017-Mar-15 02:31N 51°03' E 002°19'0 0.0
2017-Mar-15 01:28N 51°03' E 002°19'0 0.0
2017-Mar-15 00:31N 51°03' E 002°19'0 0.0
2017-Mar-14 23:16N 51°03' E 002°19'0 0.0
2017-Mar-14 22:28N 51°03' E 002°19'0 0.0
2017-Mar-14 21:31N 51°03' E 002°19'0 0.0
2017-Mar-14 20:25N 51°03' E 002°19'0 0.0
2017-Mar-14 19:31N 51°03' E 002°19'0 0.0
2017-Mar-14 18:31N 51°03' E 002°19'0 0.0
2017-Mar-14 17:25N 51°03' E 002°19'0 0.0
2017-Mar-14 16:31N 51°03' E 002°19'0 0.0
2017-Mar-14 15:13N 51°03' E 002°19'0 0.0
2017-Mar-14 14:31N 51°03' E 002°19'0 0.0
2017-Mar-14 13:31N 51°03' E 002°19'0 0.0
2017-Mar-14 12:22N 51°03' E 002°19'0 0.0
2017-Mar-14 11:22N 51°03' E 002°19'0 0.0
2017-Mar-14 10:22N 51°03' E 002°19'0 0.0
2017-Mar-14 09:31N 51°03' E 002°19'0 0.0
2017-Mar-14 08:28N 51°03' E 002°19'0 0.0
2017-Mar-14 07:31N 51°03' E 002°19'0 0.0
2017-Mar-14 06:28N 51°03' E 002°19'0 0.0
2017-Mar-14 05:25N 51°03' E 002°19'0 0.0
2017-Mar-14 04:31N 51°03' E 002°19'0 0.0
2017-Mar-14 03:31N 51°03' E 002°19'0 0.0
2017-Mar-14 02:28N 51°03' E 002°19'0 0.0
2017-Mar-14 01:31N 51°03' E 002°19'0 0.0
2017-Mar-14 00:31N 51°03' E 002°19'0 0.0
2017-Mar-13 23:31N 51°03' E 002°19'0 0.0
2017-Mar-13 22:31N 51°03' E 002°19'0 0.0
2017-Mar-13 21:31N 51°03' E 002°19'0 0.0
2017-Mar-13 20:31N 51°03' E 002°19'0 0.0
2017-Mar-13 19:31N 51°03' E 002°19'0 0.0
2017-Mar-13 18:31N 51°03' E 002°19'0 0.0
2017-Mar-13 17:28N 51°03' E 002°19'0 0.0
2017-Mar-13 16:33N 51°03' E 002°20'1 0.7
2017-Mar-13 15:33N 51°03' E 002°21'1 1.4
2017-Mar-13 14:33N 51°04' E 002°18'8 8.4
2017-Mar-13 13:33N 51°03' E 002°05'1211.7
2017-Mar-13 12:34N 51°02' E 001°47'1 0.6
2017-Mar-13 11:34N 51°03' E 001°46'4 4.3
2017-Mar-13 10:34N 51°01' E 001°40'4 4.3
2017-Mar-13 09:34N 50°58' E 001°35'4 4.0
2017-Mar-13 08:34N 50°56' E 001°30'4 3.8
2017-Mar-13 07:33N 50°52' E 001°28'8 6.5
2017-Mar-13 06:15N 50°44' E 001°23'56 8.3
2017-Mar-12 23:34N 50°19' E 000°04'1210.8
2017-Mar-12 22:25N 50°16' W 000°14'2412.5
2017-Mar-12 20:32N 50°10' W 000°50'1313.2
2017-Mar-12 19:33N 50°07' W 001°09'1312.7
2017-Mar-12 18:33N 50°03' W 001°28'1211.6
2017-Mar-12 17:34N 50°00' W 001°46'1010.2
2017-Mar-12 16:34N 49°58' W 002°01'33 7.3
2017-Mar-12 12:08N 49°49' W 002°50'13 8.5
2017-Mar-12 10:34N 49°47' W 003°10'8 8.0
2017-Mar-12 09:34N 49°46' W 003°22'9 9.3
2017-Mar-12 08:33N 49°45' W 003°37'1010.3
2017-Mar-12 07:34N 49°44' W 003°52'3911.3
2017-Mar-12 04:05N 49°39' W 004°53'611.5
2017-Mar-12 03:33N 49°38' W 005°02'1210.6
2017-Mar-12 02:26N 49°36' W 005°20'1010.4
2017-Mar-12 01:30N 49°38' W 005°35'  

Dump ship's entire track history